Time;durP1;ratioP1;P1;durP2;ratioP2;P2;SDS_P1;SDS_P2;PMS_P1;PMS_P2;Temp;Humidity;BMP_temperature;BMP_pressure;BME280_temperature;BME280_humidity;BME280_pressure;Samples;Min_cycle;Max_cycle;Signal;HPM_P1;HPM_P2
2022/04/21 00:01:00;;;;;;;17.52;13.35;;;27.40;95.40;;;;;;4160956;28;20050;-73
2022/04/21 00:03:05;;;;;;;18.90;14.13;;;27.40;95.20;;;;;;4163252;28;20053;-73
2022/04/21 00:05:14;;;;;;;17.52;14.10;;;27.50;95.20;;;;;;4160814;28;20109;-73
2022/04/21 00:07:23;;;;;;;17.80;13.50;;;27.50;95.20;;;;;;4163492;28;20049;-73
2022/04/21 00:09:32;;;;;;;16.63;13.40;;;27.50;95.20;;;;;;4161909;28;20065;-73
2022/04/21 00:11:40;;;;;;;16.35;12.27;;;27.60;95.20;;;;;;4163943;28;20430;-74
2022/04/21 00:13:48;;;;;;;22.63;12.48;;;27.60;95.10;;;;;;4160204;28;20046;-74
2022/04/21 00:15:52;;;;;;;16.30;12.80;;;27.70;94.90;;;;;;4162336;28;20049;-74
2022/04/21 00:18:01;;;;;;;17.60;12.10;;;27.70;95.20;;;;;;4164279;28;20056;-74
2022/04/21 00:20:07;;;;;;;17.83;11.15;;;27.80;94.80;;;;;;4175157;28;20064;-74
2022/04/21 00:24:32;;;;;;;13.90;11.20;;;27.80;94.60;;;;;;4162809;28;20045;-74
2022/04/21 00:26:37;;;;;;;15.75;10.90;;;27.90;94.60;;;;;;4148333;28;20061;-73
2022/04/21 00:28:44;;;;;;;14.38;10.27;;;27.90;94.60;;;;;;4155686;28;20083;-72
2022/04/21 00:30:50;;;;;;;15.73;9.48;;;27.90;94.40;;;;;;4153076;28;20137;-76
2022/04/21 00:32:58;;;;;;;13.27;9.63;;;27.90;94.40;;;;;;4149831;28;20034;-76
2022/04/21 00:35:08;;;;;;;20.05;10.77;;;27.90;94.20;;;;;;4153319;28;20096;-75
2022/04/21 00:37:13;;;;;;;24.85;10.93;;;28.00;94.20;;;;;;4164981;28;20457;-72
2022/04/21 00:39:19;;;;;;;12.75;9.93;;;28.00;94.10;;;;;;4156842;28;20401;-74
2022/04/21 00:41:24;;;;;;;15.05;8.38;;;28.00;94.00;;;;;;4151967;28;20132;-75
2022/04/21 00:43:30;;;;;;;11.23;8.35;;;28.00;93.60;;;;;;4153213;28;20104;-73
2022/04/21 00:45:38;;;;;;;14.98;8.90;;;28.10;93.50;;;;;;4157378;28;20399;-73
2022/04/21 00:47:45;;;;;;;12.88;8.43;;;28.10;93.60;;;;;;4157551;28;20081;-76
2022/04/21 00:49:52;;;;;;;13.75;7.90;;;28.20;94.00;;;;;;4135250;28;20122;-76
2022/04/21 00:52:05;;;;;;;12.38;8.27;;;28.20;93.70;;;;;;4145687;28;20057;-77
2022/04/21 00:54:09;;;;;;;12.60;7.70;;;28.30;93.80;;;;;;4164953;28;20049;-74
2022/04/21 00:56:17;;;;;;;18.70;9.25;;;28.30;93.60;;;;;;4162563;28;20042;-75
2022/04/21 00:58:28;;;;;;;15.60;8.60;;;28.30;93.60;;;;;;4164352;28;20057;-74
2022/04/21 01:00:34;;;;;;;11.18;8.10;;;28.30;93.60;;;;;;4157374;28;20050;-78
2022/04/21 01:02:52;;;;;;;12.70;8.13;;;28.30;93.50;;;;;;4160555;28;20124;-75
2022/04/21 01:04:59;;;;;;;11.10;8.13;;;28.40;93.50;;;;;;4153500;28;20374;-74
2022/04/21 01:07:08;;;;;;;11.13;7.85;;;28.40;93.50;;;;;;4164076;28;20053;-72
2022/04/21 01:09:14;;;;;;;10.98;8.10;;;28.40;93.40;;;;;;4160379;28;20088;-73
2022/04/21 01:11:21;;;;;;;11.38;7.25;;;28.50;93.40;;;;;;4158463;28;20050;-73
2022/04/21 01:13:28;;;;;;;10.57;6.97;;;28.50;93.10;;;;;;4155218;28;20143;-75
2022/04/21 01:15:35;;;;;;;9.98;7.18;;;28.50;92.90;;;;;;4145180;28;20060;-73
2022/04/21 01:17:48;;;;;;;12.68;7.57;;;28.60;92.80;;;;;;4153814;28;20042;-72
2022/04/21 01:19:53;;;;;;;8.45;7.05;;;28.60;92.70;;;;;;4157590;28;20132;-73
2022/04/21 01:22:00;;;;;;;9.80;7.32;;;28.70;92.70;;;;;;4128987;28;20078;-73
2022/04/21 01:24:12;;;;;;;9.73;6.95;;;28.70;92.50;;;;;;4157359;28;20125;-73
2022/04/21 01:26:19;;;;;;;11.18;7.20;;;28.80;92.40;;;;;;4162776;28;20072;-74
2022/04/21 01:28:32;;;;;;;10.23;6.63;;;28.80;92.40;;;;;;4166165;28;20044;-74
2022/04/21 01:30:40;;;;;;;12.07;6.80;;;28.90;92.40;;;;;;4167470;28;20053;-74
2022/04/21 01:32:48;;;;;;;10.35;6.55;;;29.00;92.30;;;;;;4163920;28;20033;-74
2022/04/21 01:34:56;;;;;;;10.25;6.43;;;29.00;92.20;;;;;;4168981;28;20048;-75
2022/04/21 01:41:40;;;;;;;8.38;6.85;;;29.10;92.00;;;;;;4157572;28;20132;-75
2022/04/21 01:43:47;;;;;;;10.13;7.53;;;29.10;92.00;;;;;;4160737;28;20559;-74
2022/04/21 01:45:52;;;;;;;9.98;6.85;;;29.20;92.10;;;;;;4158893;28;20053;-74
2022/04/21 01:48:08;;;;;;;10.73;7.20;;;29.20;92.10;;;;;;4155440;28;20045;-75
2022/04/21 01:50:18;;;;;;;11.27;7.25;;;29.30;92.30;;;;;;4156642;28;20285;-74
2022/04/21 01:52:24;;;;;;;10.50;7.53;;;29.30;92.20;;;;;;4153138;28;20067;-74
2022/04/21 01:54:31;;;;;;;10.20;7.10;;;29.40;92.20;;;;;;4162584;28;20066;-73
2022/04/21 01:56:38;;;;;;;10.43;7.90;;;29.40;92.10;;;;;;4161898;28;20145;-74
2022/04/21 01:58:44;;;;;;;11.90;7.65;;;29.40;92.50;;;;;;4170100;28;20091;-75
2022/04/21 02:00:54;;;;;;;9.73;7.53;;;29.40;92.10;;;;;;4172940;28;20056;-74
2022/04/21 02:03:01;;;;;;;14.00;8.10;;;29.40;92.00;;;;;;4157429;28;20112;-74
2022/04/21 02:05:08;;;;;;;9.27;7.15;;;29.50;92.10;;;;;;4171142;28;20103;-73
2022/04/21 02:07:18;;;;;;;12.43;7.50;;;29.50;92.00;;;;;;4164086;28;20042;-72
2022/04/21 02:09:25;;;;;;;9.13;7.45;;;29.60;92.00;;;;;;4160663;28;20049;-76
2022/04/21 02:11:31;;;;;;;14.43;7.57;;;29.60;91.90;;;;;;4153050;28;20137;-74
2022/04/21 02:13:38;;;;;;;10.93;7.65;;;29.70;91.80;;;;;;4161508;28;20077;-73
2022/04/21 02:15:45;;;;;;;13.55;7.40;;;29.70;91.90;;;;;;4154873;28;20109;-74
2022/04/21 02:17:51;;;;;;;10.35;7.53;;;29.70;92.00;;;;;;4154242;28;20046;-73
2022/04/21 02:20:00;;;;;;;8.27;6.65;;;29.80;91.90;;;;;;4147336;28;20042;-74
2022/04/21 02:22:05;;;;;;;11.07;7.57;;;29.80;91.50;;;;;;4168521;28;20049;-73
2022/04/21 02:24:10;;;;;;;10.18;6.60;;;29.80;91.80;;;;;;4170550;28;20041;-74
2022/04/21 02:26:18;;;;;;;9.48;7.63;;;29.90;91.70;;;;;;4159430;28;20108;-74
2022/04/21 02:28:25;;;;;;;14.93;6.60;;;30.00;91.80;;;;;;4154093;28;20132;-74
2022/04/21 02:30:30;;;;;;;8.73;7.38;;;30.00;91.60;;;;;;4161822;28;20050;-73
2022/04/21 02:32:37;;;;;;;10.18;7.20;;;30.00;91.70;;;;;;4145649;28;20053;-73
2022/04/21 02:34:44;;;;;;;9.63;7.20;;;30.10;91.70;;;;;;4167460;28;20049;-74
2022/04/21 02:36:53;;;;;;;13.85;8.10;;;30.10;91.60;;;;;;4153851;28;20152;-73
2022/04/21 02:39:00;;;;;;;12.70;8.10;;;30.20;91.60;;;;;;4131232;28;20053;-73
2022/04/21 02:41:07;;;;;;;15.10;8.57;;;30.30;91.30;;;;;;4155510;28;20072;-74
2022/04/21 02:43:16;;;;;;;14.75;7.63;;;30.30;91.30;;;;;;4156793;28;20157;-74
2022/04/21 02:45:25;;;;;;;13.65;7.22;;;30.30;91.20;;;;;;4159873;28;20046;-72
2022/04/21 02:47:30;;;;;;;11.55;7.38;;;30.40;91.10;;;;;;4154613;28;20073;-73
2022/04/21 02:49:36;;;;;;;14.65;7.07;;;30.40;91.10;;;;;;4159370;28;20049;-73
2022/04/21 02:51:41;;;;;;;10.55;6.70;;;30.50;91.00;;;;;;4155204;28;20038;-75
2022/04/21 02:58:26;;;;;;;9.27;6.63;;;30.60;90.70;;;;;;4134607;28;20821;-72
2022/04/21 03:00:34;;;;;;;9.90;7.10;;;30.60;90.70;;;;;;4157306;28;20664;-74
2022/04/21 03:02:40;;;;;;;9.75;6.95;;;30.70;90.80;;;;;;4161786;28;20045;-75
2022/04/21 03:04:48;;;;;;;10.38;6.72;;;30.80;90.70;;;;;;4153819;28;20037;-75
2022/04/21 03:06:54;;;;;;;9.77;6.55;;;30.90;90.60;;;;;;4151743;28;20516;-74
2022/04/21 03:08:59;;;;;;;8.80;6.72;;;30.90;90.30;;;;;;4165666;28;20049;-75
2022/04/21 03:11:05;;;;;;;7.50;6.22;;;31.00;90.40;;;;;;4154190;28;20076;-74
2022/04/21 03:13:12;;;;;;;9.52;6.95;;;31.00;90.40;;;;;;4155988;28;20042;-73
2022/04/21 03:15:16;;;;;;;10.63;6.82;;;31.10;90.50;;;;;;4167019;28;20053;-74
2022/04/21 03:17:24;;;;;;;11.80;6.85;;;31.10;90.50;;;;;;4154722;28;20113;-73
2022/04/21 03:19:32;;;;;;;13.18;6.78;;;31.10;90.50;;;;;;4163651;28;20548;-74
2022/04/21 03:26:25;;;;;;;8.95;6.70;;;31.20;90.30;;;;;;4153933;28;20038;-75
2022/04/21 03:28:32;;;;;;;9.23;6.50;;;31.30;90.40;;;;;;4157758;28;20060;-74
2022/04/21 03:30:41;;;;;;;9.75;6.82;;;31.30;90.40;;;;;;4151548;28;20038;-74
2022/04/21 03:32:46;;;;;;;12.57;6.95;;;31.30;90.30;;;;;;4159439;28;20052;-73
2022/04/21 03:34:53;;;;;;;7.68;6.40;;;31.30;90.20;;;;;;4158929;28;20077;-75
2022/04/21 03:36:58;;;;;;;8.90;6.32;;;31.40;90.10;;;;;;4164664;28;20068;-74
2022/04/21 03:39:20;;;;;;;8.57;6.53;;;31.30;89.90;;;;;;3723093;28;10001728;-73
2022/04/21 03:41:26;;;;;;;9.88;6.90;;;31.40;89.40;;;;;;4149179;28;20045;-73
2022/04/21 03:43:34;;;;;;;12.27;6.85;;;31.40;89.40;;;;;;4165334;28;20814;-73
2022/04/21 03:45:44;;;;;;;8.13;6.65;;;31.40;89.50;;;;;;4153217;28;20054;-74
2022/04/21 03:47:49;;;;;;;8.95;7.03;;;31.40;89.40;;;;;;4156626;28;20072;-74
2022/04/21 03:49:56;;;;;;;11.85;6.53;;;31.50;89.20;;;;;;4165945;28;20075;-74
2022/04/21 03:52:04;;;;;;;10.93;7.30;;;31.50;89.30;;;;;;4158791;28;20053;-74
2022/04/21 03:54:09;;;;;;;9.82;7.60;;;31.50;89.30;;;;;;4155498;28;20069;-72
2022/04/21 03:56:16;;;;;;;9.82;7.13;;;31.50;89.20;;;;;;4149550;28;20073;-71
2022/04/21 03:58:27;;;;;;;11.32;6.82;;;31.50;89.00;;;;;;4148736;28;20104;-70
2022/04/21 04:00:32;;;;;;;11.00;7.22;;;31.60;89.10;;;;;;4153826;28;20057;-69
2022/04/21 04:02:39;;;;;;;10.18;6.85;;;31.60;88.90;;;;;;4163363;28;20049;-68
2022/04/21 04:04:47;;;;;;;9.95;7.03;;;31.60;89.60;;;;;;4157995;28;20098;-70
2022/04/21 04:11:27;;;;;;;10.50;7.28;;;31.50;89.20;;;;;;4159943;28;20133;-70
2022/04/21 04:13:32;;;;;;;9.52;7.10;;;31.60;88.70;;;;;;4154448;28;20044;-72
2022/04/21 04:15:39;;;;;;;9.48;7.28;;;31.60;88.90;;;;;;4159992;28;20065;-74
2022/04/21 04:17:43;;;;;;;11.27;6.65;;;31.60;88.70;;;;;;4155738;28;20053;-72
2022/04/21 04:19:49;;;;;;;9.98;7.15;;;31.60;88.20;;;;;;4151774;28;20049;-72
2022/04/21 04:21:53;;;;;;;10.60;7.13;;;31.70;88.20;;;;;;4155841;28;20038;-72
2022/04/21 04:24:00;;;;;;;13.50;7.35;;;31.80;87.60;;;;;;4152990;28;20061;-72
2022/04/21 04:26:05;;;;;;;9.43;6.97;;;31.90;87.10;;;;;;4158971;28;20076;-73
2022/04/21 04:28:16;;;;;;;10.88;7.07;;;32.00;86.80;;;;;;4148300;28;20046;-72
2022/04/21 04:30:25;;;;;;;11.23;7.15;;;32.10;86.60;;;;;;4155441;28;20050;-72
2022/04/21 04:32:32;;;;;;;9.80;6.97;;;32.20;86.40;;;;;;4155407;28;20048;-72
2022/04/21 04:34:41;;;;;;;11.95;7.60;;;32.20;86.50;;;;;;4136532;28;20054;-68
2022/04/21 04:36:47;;;;;;;10.93;7.35;;;32.30;85.90;;;;;;4145094;28;20050;-71
2022/04/21 04:38:52;;;;;;;10.77;6.60;;;32.30;85.70;;;;;;4151170;28;20033;-72
2022/04/21 04:42:16;;;;;;;8.60;6.45;;;32.20;85.40;;;;;;4151734;28;20476;-67
2022/04/21 04:43:27;;;;;;;9.75;6.80;;;32.20;85.70;;;;;;4173217;28;20068;-72
2022/04/21 04:47:56;;;;;;;11.32;7.43;;;32.20;85.20;;;;;;4156273;28;20448;-73
2022/04/21 04:50:03;;;;;;;8.98;7.22;;;32.30;85.70;;;;;;4148347;28;20119;-73
2022/04/21 04:52:08;;;;;;;11.80;6.85;;;32.30;85.00;;;;;;4157171;28;20057;-73
2022/04/21 04:54:17;;;;;;;10.48;7.13;;;32.40;85.10;;;;;;4150602;28;20136;-73
2022/04/21 04:56:27;;;;;;;12.63;7.00;;;32.40;85.30;;;;;;4158536;28;20128;-72
2022/04/21 04:58:31;;;;;;;11.38;6.95;;;32.40;84.70;;;;;;4152635;28;20038;-71
2022/04/21 05:00:39;;;;;;;9.77;7.00;;;32.40;84.70;;;;;;4144845;28;20077;-69
2022/04/21 05:02:46;;;;;;;9.38;6.70;;;32.50;84.90;;;;;;4148091;28;20049;-73
2022/04/21 05:04:56;;;;;;;9.85;7.03;;;32.50;85.10;;;;;;4153054;28;20347;-69
2022/04/21 05:07:05;;;;;;;8.20;6.93;;;32.50;85.10;;;;;;4154241;28;20061;-70
2022/04/21 05:09:15;;;;;;;9.68;7.45;;;32.50;85.20;;;;;;4156539;28;20048;-72
2022/04/21 05:11:21;;;;;;;11.40;7.45;;;32.50;84.60;;;;;;4152665;28;20057;-71
2022/04/21 05:13:30;;;;;;;10.77;6.80;;;32.50;85.00;;;;;;4157506;28;20105;-73
2022/04/21 05:15:44;;;;;;;12.70;7.35;;;32.60;85.00;;;;;;4155771;28;20115;-74
2022/04/21 05:17:52;;;;;;;10.15;7.10;;;32.70;84.60;;;;;;4149541;28;20038;-72
2022/04/21 05:20:02;;;;;;;10.27;7.10;;;32.80;83.80;;;;;;4131780;28;20047;-73
2022/04/21 05:22:12;;;;;;;11.32;7.35;;;32.90;83.10;;;;;;4147833;28;20092;-72
2022/04/21 05:24:17;;;;;;;11.82;7.00;;;33.00;82.80;;;;;;4151110;28;20045;-73
2022/04/21 05:26:26;;;;;;;12.00;7.30;;;33.00;82.60;;;;;;4155020;28;21781;-72
2022/04/21 05:28:32;;;;;;;9.90;7.10;;;33.10;82.40;;;;;;4156117;28;20088;-74
2022/04/21 05:33:03;;;;;;;11.80;7.45;;;33.30;82.60;;;;;;4176056;28;20037;-74
2022/04/21 05:35:18;;;;;;;10.07;7.35;;;33.30;82.60;;;;;;4181423;28;20116;-74
2022/04/21 05:37:25;;;;;;;12.50;7.55;;;33.40;82.80;;;;;;4175055;28;20049;-74
2022/04/21 05:39:32;;;;;;;10.32;7.25;;;33.50;82.50;;;;;;4140158;28;20070;-73
2022/04/21 05:41:43;;;;;;;11.27;7.18;;;33.50;82.40;;;;;;4151118;28;20046;-73
2022/04/21 05:43:50;;;;;;;10.27;7.40;;;33.50;81.90;;;;;;4166298;28;20053;-72
2022/04/21 05:46:11;;;;;;;10.27;7.28;;;33.60;82.00;;;;;;4178239;28;20048;-72
2022/04/21 05:48:23;;;;;;;13.23;7.57;;;33.70;82.00;;;;;;4176469;28;20060;-73
2022/04/21 05:50:36;;;;;;;9.73;7.50;;;33.70;81.90;;;;;;4180449;28;20295;-73
2022/04/21 05:52:45;;;;;;;14.45;8.02;;;33.80;82.10;;;;;;4140935;28;20066;-72
2022/04/21 05:54:52;;;;;;;13.30;7.03;;;33.90;82.30;;;;;;4150346;28;20064;-72
2022/04/21 05:56:59;;;;;;;9.27;7.05;;;34.00;81.90;;;;;;4156929;28;20100;-72
2022/04/21 05:59:05;;;;;;;9.65;6.93;;;34.00;81.80;;;;;;4170457;28;20524;-73
2022/04/21 06:01:13;;;;;;;9.23;6.68;;;34.10;81.50;;;;;;4177778;28;20105;-71
2022/04/21 06:03:18;;;;;;;10.50;7.28;;;34.00;81.60;;;;;;4164444;28;20221;-72
2022/04/21 06:05:27;;;;;;;10.70;7.55;;;33.90;81.70;;;;;;4172489;28;20496;-70
2022/04/21 06:07:34;;;;;;;9.57;6.82;;;33.90;81.90;;;;;;4159637;28;20045;-71
2022/04/21 06:09:40;;;;;;;8.65;7.20;;;33.90;81.70;;;;;;4161331;28;20053;-72
2022/04/21 06:11:49;;;;;;;10.38;7.45;;;33.90;81.40;;;;;;4167460;28;20053;-72
2022/04/21 06:13:56;;;;;;;13.27;7.38;;;33.90;81.50;;;;;;4159673;28;20053;-72
2022/04/21 06:16:01;;;;;;;11.45;7.57;;;33.90;80.80;;;;;;4157388;28;20057;-72
2022/04/21 06:18:10;;;;;;;13.07;7.78;;;33.90;80.70;;;;;;4127745;28;20050;-71
2022/04/21 06:20:19;;;;;;;10.02;6.45;;;34.00;80.90;;;;;;4161979;28;20141;-71
2022/04/21 06:22:24;;;;;;;10.07;7.63;;;34.20;80.50;;;;;;4151195;28;20060;-70
2022/04/21 06:24:31;;;;;;;11.57;7.93;;;34.10;80.70;;;;;;4144425;28;20057;-71
2022/04/21 06:26:42;;;;;;;10.60;7.32;;;34.10;80.60;;;;;;4158572;28;20411;-73
2022/04/21 06:28:47;;;;;;;10.90;7.28;;;34.00;81.00;;;;;;4159364;28;20045;-75
2022/04/21 06:30:53;;;;;;;9.20;7.22;;;34.20;80.60;;;;;;4159978;28;20129;-74
2022/04/21 06:33:02;;;;;;;11.18;7.50;;;34.20;80.30;;;;;;4150502;28;20097;-75
2022/04/21 06:35:09;;;;;;;13.00;7.57;;;34.20;80.30;;;;;;4176819;28;20112;-74
2022/04/21 06:37:19;;;;;;;11.45;7.28;;;34.10;80.30;;;;;;4160909;28;20048;-72
2022/04/21 06:39:26;;;;;;;9.95;7.85;;;33.90;79.90;;;;;;4156590;28;20064;-73
2022/04/21 06:41:33;;;;;;;11.55;7.28;;;33.90;79.80;;;;;;4163199;28;20052;-73
2022/04/21 06:48:19;;;;;;;17.02;7.80;;;33.70;81.60;;;;;;4157225;28;20057;-74
2022/04/21 06:50:26;;;;;;;13.35;7.85;;;33.70;81.60;;;;;;4162321;28;20037;-73
2022/04/21 06:52:33;;;;;;;9.18;7.50;;;33.60;81.60;;;;;;4156782;28;20042;-73
2022/04/21 06:54:40;;;;;;;10.30;7.55;;;33.60;81.60;;;;;;4155062;28;20054;-72
2022/04/21 06:56:48;;;;;;;14.55;7.43;;;33.50;80.50;;;;;;4155404;28;20117;-72
2022/04/21 06:58:56;;;;;;;12.52;7.15;;;33.50;81.00;;;;;;4153154;28;20046;-71
2022/04/21 07:01:01;;;;;;;12.68;7.85;;;33.50;80.70;;;;;;4157946;28;20099;-73
2022/04/21 07:03:09;;;;;;;11.38;8.18;;;33.60;80.70;;;;;;4125059;28;20051;-74
2022/04/21 07:05:19;;;;;;;12.13;8.20;;;33.50;80.80;;;;;;4158632;28;20116;-71
2022/04/21 07:07:26;;;;;;;10.68;7.43;;;33.60;80.00;;;;;;4167007;28;20045;-73
2022/04/21 07:09:33;;;;;;;12.80;8.25;;;33.60;80.70;;;;;;4164067;28;20103;-72
2022/04/21 07:11:43;;;;;;;10.77;7.47;;;33.50;80.50;;;;;;4149095;28;20049;-74
2022/04/21 07:13:49;;;;;;;10.95;7.13;;;33.50;80.40;;;;;;4150954;28;20105;-74
2022/04/21 07:15:56;;;;;;;10.60;7.55;;;33.50;80.10;;;;;;4155776;28;20037;-73
2022/04/21 07:18:03;;;;;;;12.70;7.82;;;33.60;79.60;;;;;;4157367;28;20041;-72
2022/04/21 07:20:11;;;;;;;11.85;8.07;;;33.60;79.90;;;;;;4151671;28;20046;-74
2022/04/21 07:22:20;;;;;;;12.60;8.50;;;33.70;80.10;;;;;;4165587;28;20364;-73
2022/04/21 07:24:29;;;;;;;12.93;7.78;;;33.80;80.10;;;;;;4164706;28;20057;-73
2022/04/21 07:26:34;;;;;;;13.70;7.90;;;33.80;79.00;;;;;;4149203;28;20596;-75
2022/04/21 07:28:44;;;;;;;10.32;7.55;;;33.80;79.00;;;;;;4157096;28;20054;-73
2022/04/21 07:30:51;;;;;;;10.30;7.30;;;33.80;79.10;;;;;;4150618;28;20038;-74
2022/04/21 07:32:57;;;;;;;13.30;7.57;;;33.90;78.80;;;;;;4158858;28;20469;-73
2022/04/21 07:35:06;;;;;;;12.93;8.50;;;33.90;78.30;;;;;;4127450;28;20118;-76
2022/04/21 07:37:17;;;;;;;10.43;7.95;;;33.90;78.50;;;;;;4155587;28;20053;-72
2022/04/21 07:39:22;;;;;;;10.80;7.75;;;34.00;77.80;;;;;;4166837;28;20045;-75
2022/04/21 07:41:28;;;;;;;11.52;8.48;;;34.10;77.60;;;;;;4173013;28;20056;-75
2022/04/21 07:43:35;;;;;;;13.43;8.60;;;34.10;77.20;;;;;;4150537;28;20038;-73
2022/04/21 07:45:41;;;;;;;11.05;8.02;;;34.10;77.90;;;;;;4157695;28;20045;-77
2022/04/21 07:47:47;;;;;;;13.52;9.15;;;34.10;77.30;;;;;;4141030;28;20108;-76
2022/04/21 07:49:56;;;;;;;10.93;7.78;;;34.00;77.40;;;;;;4164151;28;20041;-75
2022/04/21 07:54:19;;;;;;;11.98;8.40;;;34.10;76.30;;;;;;4165411;28;20069;-75
2022/04/21 07:56:24;;;;;;;13.20;8.35;;;34.20;77.10;;;;;;4163073;28;20041;-76
2022/04/21 07:58:32;;;;;;;11.65;8.40;;;34.30;76.20;;;;;;4153642;28;20080;-77
2022/04/21 08:00:40;;;;;;;11.68;8.00;;;34.30;76.50;;;;;;4148475;28;20173;-75
2022/04/21 08:02:52;;;;;;;13.70;9.05;;;34.40;76.10;;;;;;4161474;28;20046;-74
2022/04/21 08:04:57;;;;;;;14.30;9.02;;;34.40;76.70;;;;;;4160336;28;20679;-73
2022/04/21 08:07:04;;;;;;;15.57;9.20;;;34.50;74.80;;;;;;4164790;28;20057;-75
2022/04/21 08:09:19;;;;;;;13.52;9.00;;;34.40;74.40;;;;;;4157832;28;20432;-70
2022/04/21 08:11:24;;;;;;;13.20;9.00;;;34.20;74.90;;;;;;4157494;28;20064;-72
2022/04/21 08:13:31;;;;;;;11.80;9.02;;;34.00;74.80;;;;;;4133052;28;20050;-72
2022/04/21 08:15:41;;;;;;;12.80;8.70;;;33.90;75.30;;;;;;4172103;28;20808;-73
2022/04/21 08:17:49;;;;;;;18.38;9.95;;;33.80;79.20;;;;;;4158830;28;20054;-71
2022/04/21 08:19:56;;;;;;;17.95;9.55;;;33.50;80.20;;;;;;4149963;28;20136;-72
2022/04/21 08:22:06;;;;;;;14.02;9.05;;;33.30;80.80;;;;;;4159870;28;20392;-73
2022/04/21 08:33:58;;;;;;;13.40;8.10;;;33.30;83.70;;;;;;4145269;28;20050;-74
2022/04/21 08:36:06;;;;;;;12.23;8.75;;;33.30;83.30;;;;;;4161021;28;20045;-73
2022/04/21 08:38:13;;;;;;;19.17;8.60;;;33.30;82.80;;;;;;4154151;28;20042;-74
2022/04/21 08:40:29;;;;;;;13.52;8.68;;;33.10;81.50;;;;;;4159348;28;20061;-73
2022/04/21 08:42:44;;;;;;;13.43;8.45;;;33.00;81.80;;;;;;4169716;28;20083;-73
2022/04/21 08:44:49;;;;;;;16.15;8.70;;;33.00;81.80;;;;;;4156502;28;20057;-73
2022/04/21 08:47:02;;;;;;;;;;;33.10;81.50;;;;;;4165600;28;20047;-74
2022/04/21 08:49:17;;;;;;;20.10;8.50;;;33.10;81.20;;;;;;4157720;28;19971;-74
2022/04/21 08:51:28;;;;;;;12.48;8.50;;;33.00;82.20;;;;;;4172400;28;20794;-74
2022/04/21 08:53:40;;;;;;;13.60;8.80;;;33.00;82.60;;;;;;4168403;28;20101;-74
2022/04/21 08:55:51;;;;;;;14.07;9.25;;;33.00;82.30;;;;;;4145048;28;20130;-75
2022/04/21 08:57:57;;;;;;;13.38;8.57;;;33.00;82.10;;;;;;4168086;28;20045;-75
2022/04/21 09:00:06;;;;;;;12.48;9.05;;;33.00;81.70;;;;;;4161625;28;20512;-73
2022/04/21 09:02:17;;;;;;;16.38;9.30;;;33.10;81.60;;;;;;4168933;28;20095;-72
2022/04/21 09:04:22;;;;;;;14.13;8.60;;;33.00;81.60;;;;;;4151231;28;20140;-69
2022/04/21 09:06:29;;;;;;;14.65;8.85;;;33.00;81.90;;;;;;4166233;28;20109;-74
2022/04/21 09:08:37;;;;;;;13.48;8.40;;;32.90;81.70;;;;;;4159911;28;20050;-72
2022/04/21 09:10:44;;;;;;;16.02;9.77;;;32.90;82.10;;;;;;4144002;28;20097;-75
2022/04/21 09:12:55;;;;;;;13.35;8.70;;;33.00;81.90;;;;;;4163841;28;20050;-74
2022/04/21 09:15:12;;;;;;;12.00;8.77;;;32.90;81.90;;;;;;4164979;28;20074;-73
2022/04/21 09:17:17;;;;;;;13.30;8.38;;;32.90;82.20;;;;;;4155603;28;20076;-73
2022/04/21 09:19:22;;;;;;;13.68;9.32;;;32.80;82.10;;;;;;4170125;28;20124;-71
2022/04/21 09:21:35;;;;;;;13.18;9.18;;;32.80;82.40;;;;;;4164158;28;20099;-73
2022/04/21 09:23:45;;;;;;;13.02;9.57;;;32.80;82.60;;;;;;4155998;28;20050;-73
2022/04/21 09:25:52;;;;;;;18.27;10.35;;;32.80;83.00;;;;;;4156664;28;20046;-73
2022/04/21 09:27:57;;;;;;;15.90;10.18;;;32.80;82.70;;;;;;4160565;28;20056;-74
2022/04/21 09:30:10;;;;;;;16.42;10.60;;;32.80;82.90;;;;;;4155370;28;20053;-75
2022/04/21 09:32:19;;;;;;;13.93;9.70;;;32.90;82.50;;;;;;4178696;28;20087;-75
2022/04/21 09:34:32;;;;;;;13.95;9.27;;;32.90;82.60;;;;;;4154590;28;20532;-74
2022/04/21 09:36:49;;;;;;;14.05;8.90;;;32.90;82.50;;;;;;4162906;28;20068;-74
2022/04/21 09:39:02;;;;;;;15.07;9.88;;;32.90;82.40;;;;;;4163526;28;20048;-74
2022/04/21 09:41:14;;;;;;;13.57;9.80;;;32.80;83.20;;;;;;4171660;28;20049;-74
2022/04/21 09:43:27;;;;;;;13.80;9.07;;;32.70;84.20;;;;;;4139305;28;20075;-73
2022/04/21 09:48:25;;;;;;;12.70;8.55;;;32.80;83.70;;;;;;4147803;28;20129;-77
2022/04/21 09:50:32;;;;;;;12.10;9.07;;;32.80;84.30;;;;;;4165757;28;20492;-73
2022/04/21 09:52:39;;;;;;;14.27;8.82;;;32.80;84.00;;;;;;4142509;28;20061;-74
2022/04/21 09:54:48;;;;;;;14.43;9.10;;;32.90;83.30;;;;;;4163577;28;20097;-74
2022/04/21 09:56:58;;;;;;;14.68;10.23;;;32.90;83.20;;;;;;4158279;28;20123;-74
2022/04/21 09:59:07;;;;;;;12.93;9.07;;;32.90;83.40;;;;;;4176967;28;20048;-71
2022/04/21 10:01:14;;;;;;;15.38;9.57;;;32.80;83.30;;;;;;4160385;28;20053;-72
2022/04/21 10:03:23;;;;;;;14.70;9.40;;;32.70;83.50;;;;;;4170191;28;20065;-73
2022/04/21 10:05:31;;;;;;;15.60;11.15;;;32.70;82.40;;;;;;4142083;28;20042;-74
2022/04/21 10:07:38;;;;;;;14.73;11.18;;;32.60;82.70;;;;;;4162364;28;20037;-72
2022/04/21 10:09:48;;;;;;;53.67;37.22;;;32.60;83.40;;;;;;4160114;28;20045;-72
2022/04/21 10:11:59;;;;;;;41.85;20.27;;;32.60;83.60;;;;;;4154988;28;20054;-72
2022/04/21 10:14:07;;;;;;;27.05;13.65;;;32.50;83.80;;;;;;4153812;28;20053;-74
2022/04/21 10:16:16;;;;;;;31.80;11.88;;;32.50;83.90;;;;;;4144476;28;20038;-73
2022/04/21 10:18:24;;;;;;;23.88;11.18;;;32.50;83.90;;;;;;4131927;28;20043;-73
2022/04/21 10:20:31;;;;;;;44.83;15.13;;;32.40;83.10;;;;;;4141243;28;20053;-72
2022/04/21 10:22:36;;;;;;;34.42;12.70;;;32.40;83.80;;;;;;4141518;28;20046;-72
2022/04/21 10:24:43;;;;;;;28.60;11.07;;;32.50;83.70;;;;;;4130805;28;20054;-73
2022/04/21 10:26:51;;;;;;;20.27;10.45;;;32.50;84.30;;;;;;4158316;28;20046;-71
2022/04/21 10:28:56;;;;;;;19.05;11.40;;;32.50;84.70;;;;;;4154355;28;20044;-71
2022/04/21 10:31:30;;;;;;;20.60;12.10;;;32.40;84.20;;;;;;4156738;28;20136;-73
2022/04/21 10:34:04;;;;;;;19.95;12.13;;;32.40;83.90;;;;;;4156897;28;20049;-73
2022/04/21 10:36:38;;;;;;;17.40;11.43;;;32.40;83.90;;;;;;4136411;28;20046;-73
2022/04/21 10:39:05;;;;;;;15.77;11.10;;;32.30;83.80;;;;;;4140212;28;20064;-72
2022/04/21 10:41:11;;;;;;;18.90;11.68;;;32.30;82.80;;;;;;4155285;28;20112;-71
2022/04/21 10:43:20;;;;;;;23.15;11.38;;;32.30;83.30;;;;;;4138705;28;20540;-73
2022/04/21 10:45:33;;;;;;;16.17;11.40;;;32.30;83.80;;;;;;4119345;28;20086;-73
2022/04/21 10:47:41;;;;;;;16.40;11.50;;;32.30;83.30;;;;;;4157361;28;20050;-71
2022/04/21 10:50:00;;;;;;;16.25;11.38;;;32.20;83.70;;;;;;4139288;28;20059;-72
2022/04/21 10:59:07;;;;;;;22.15;13.20;;;32.20;84.60;;;;;;4139825;28;20562;-74
2022/04/21 11:01:15;;;;;;;18.92;13.10;;;32.00;84.40;;;;;;4155930;28;20269;-73
2022/04/21 11:03:26;;;;;;;22.67;13.88;;;32.00;85.00;;;;;;4155266;28;20524;-72
2022/04/21 11:05:34;;;;;;;23.80;14.02;;;32.00;85.10;;;;;;4155692;28;20072;-72
2022/04/21 11:08:11;;;;;;;21.80;12.90;;;32.00;85.10;;;;;;4170830;28;20033;-73
2022/04/21 11:10:39;;;;;;;25.77;12.68;;;32.00;85.20;;;;;;4156348;28;20056;-73
2022/04/21 11:12:51;;;;;;;21.50;12.20;;;31.90;85.20;;;;;;4156251;28;20076;-72
2022/04/21 11:14:56;;;;;;;22.33;13.02;;;31.90;85.60;;;;;;4155895;28;20050;-71
2022/04/21 11:17:04;;;;;;;19.75;12.13;;;31.80;86.10;;;;;;4163756;28;20047;-72
2022/04/21 11:19:31;;;;;;;23.33;13.07;;;31.70;86.30;;;;;;4165029;28;20124;-72
2022/04/21 11:21:51;;;;;;;22.25;12.85;;;31.70;86.80;;;;;;4156664;28;20046;-72
2022/04/21 11:23:59;;;;;;;19.77;12.52;;;31.70;86.80;;;;;;4143727;28;20398;-72
2022/04/21 11:26:08;;;;;;;20.02;12.13;;;31.60;86.90;;;;;;4150700;28;20048;-72
2022/04/21 11:28:14;;;;;;;20.30;11.70;;;31.60;87.10;;;;;;4150068;28;20057;-70
2022/04/21 11:30:20;;;;;;;20.73;12.25;;;31.60;87.30;;;;;;4153346;28;20041;-71
2022/04/21 11:32:28;;;;;;;21.13;12.80;;;31.60;87.40;;;;;;4157913;28;20093;-72
2022/04/21 11:34:34;;;;;;;18.63;13.48;;;31.60;87.00;;;;;;4159054;28;20045;-71
2022/04/21 11:36:44;;;;;;;19.20;13.48;;;31.60;87.40;;;;;;4168359;28;20459;-71
2022/04/21 11:38:52;;;;;;;24.48;14.02;;;31.60;87.40;;;;;;4158499;28;20057;-70
2022/04/21 11:40:57;;;;;;;23.50;14.77;;;31.50;87.30;;;;;;4160137;28;20034;-72
2022/04/21 11:43:13;;;;;;;25.73;14.43;;;31.40;87.50;;;;;;4153668;28;20096;-72
2022/04/21 11:45:29;;;;;;;24.77;15.20;;;31.30;87.40;;;;;;4163334;28;20046;-74
2022/04/21 11:47:34;;;;;;;21.08;15.60;;;31.30;87.50;;;;;;4159505;28;20108;-74
2022/04/21 11:49:52;;;;;;;25.73;15.13;;;31.30;87.30;;;;;;4127992;28;20731;-74
2022/04/21 11:52:00;;;;;;;25.33;15.82;;;31.30;87.30;;;;;;4152708;28;20108;-74